sensor_id;sensor_type;location;lat;lon;timestamp;pressure;altitude;pressure_sealevel;temperature;humidity
53659;BME280;41524;35.624;139.698;2023-12-28T00:00:21;102643.00;;;6.02;35.71
53659;BME280;41524;35.624;139.698;2023-12-28T00:05:10;102646.00;;;6.26;37.30
53659;BME280;41524;35.624;139.698;2023-12-28T00:10:11;102642.00;;;5.13;37.35
53659;BME280;41524;35.624;139.698;2023-12-28T00:15:11;102646.00;;;6.18;36.41
53659;BME280;41524;35.624;139.698;2023-12-28T00:20:12;102643.00;;;4.81;36.59
53659;BME280;41524;35.624;139.698;2023-12-28T00:25:11;102634.00;;;6.80;36.20
53659;BME280;41524;35.624;139.698;2023-12-28T00:30:11;102627.00;;;6.21;34.67
53659;BME280;41524;35.624;139.698;2023-12-28T00:35:11;102625.00;;;7.75;34.95
53659;BME280;41524;35.624;139.698;2023-12-28T00:40:11;102613.00;;;7.69;33.22
53659;BME280;41524;35.624;139.698;2023-12-28T00:45:12;102597.00;;;8.23;31.80
53659;BME280;41524;35.624;139.698;2023-12-28T00:50:11;102594.00;;;7.61;32.78
53659;BME280;41524;35.624;139.698;2023-12-28T00:55:12;102587.00;;;7.17;33.08
53659;BME280;41524;35.624;139.698;2023-12-28T01:00:12;102581.00;;;8.05;32.92
53659;BME280;41524;35.624;139.698;2023-12-28T01:05:11;102569.00;;;9.51;31.30
53659;BME280;41524;35.624;139.698;2023-12-28T01:10:11;102564.00;;;7.89;33.18
53659;BME280;41524;35.624;139.698;2023-12-28T01:15:11;102558.00;;;7.41;33.47
53659;BME280;41524;35.624;139.698;2023-12-28T01:20:11;102544.00;;;8.52;32.42
53659;BME280;41524;35.624;139.698;2023-12-28T01:25:11;102533.00;;;8.42;32.30
53659;BME280;41524;35.624;139.698;2023-12-28T01:30:11;102524.00;;;10.49;31.49
53659;BME280;41524;35.624;139.698;2023-12-28T01:35:10;102512.00;;;10.39;30.66
53659;BME280;41524;35.624;139.698;2023-12-28T01:40:11;102506.00;;;9.72;31.33
53659;BME280;41524;35.624;139.698;2023-12-28T01:45:10;102489.00;;;10.71;29.71
53659;BME280;41524;35.624;139.698;2023-12-28T01:50:11;102480.00;;;11.10;30.11
53659;BME280;41524;35.624;139.698;2023-12-28T01:55:11;102465.00;;;10.88;29.35
53659;BME280;41524;35.624;139.698;2023-12-28T02:00:12;102456.00;;;10.24;29.90
53659;BME280;41524;35.624;139.698;2023-12-28T02:05:12;102447.00;;;10.41;29.07
53659;BME280;41524;35.624;139.698;2023-12-28T02:10:12;102434.00;;;7.80;32.63
53659;BME280;41524;35.624;139.698;2023-12-28T02:15:12;102424.00;;;10.49;31.10
53659;BME280;41524;35.624;139.698;2023-12-28T02:20:11;102409.00;;;11.71;29.38
53659;BME280;41524;35.624;139.698;2023-12-28T02:25:11;102402.00;;;11.09;30.08
53659;BME280;41524;35.624;139.698;2023-12-28T02:30:12;102387.00;;;12.18;28.77
53659;BME280;41524;35.624;139.698;2023-12-28T02:35:18;102384.00;;;9.95;31.31
53659;BME280;41524;35.624;139.698;2023-12-28T02:40:12;102375.00;;;11.05;29.46
53659;BME280;41524;35.624;139.698;2023-12-28T02:45:11;102364.00;;;7.45;33.70
53659;BME280;41524;35.624;139.698;2023-12-28T02:50:10;102357.00;;;10.76;29.87
53659;BME280;41524;35.624;139.698;2023-12-28T02:55:10;102351.00;;;9.94;30.34
53659;BME280;41524;35.624;139.698;2023-12-28T03:00:11;102345.00;;;11.33;31.58
53659;BME280;41524;35.624;139.698;2023-12-28T03:05:11;102331.00;;;10.36;32.35
53659;BME280;41524;35.624;139.698;2023-12-28T03:10:11;102318.00;;;12.45;29.00
53659;BME280;41524;35.624;139.698;2023-12-28T03:15:21;102302.00;;;11.06;31.06
53659;BME280;41524;35.624;139.698;2023-12-28T03:20:12;102287.00;;;15.78;26.12
53659;BME280;41524;35.624;139.698;2023-12-28T03:25:10;102273.00;;;19.32;22.80
53659;BME280;41524;35.624;139.698;2023-12-28T03:30:11;102272.00;;;16.78;25.07
53659;BME280;41524;35.624;139.698;2023-12-28T03:35:11;102259.00;;;20.57;22.76
53659;BME280;41524;35.624;139.698;2023-12-28T03:40:12;102239.00;;;23.49;19.64
53659;BME280;41524;35.624;139.698;2023-12-28T03:45:12;102241.00;;;19.12;22.97
53659;BME280;41524;35.624;139.698;2023-12-28T03:50:11;102235.00;;;19.74;22.73
53659;BME280;41524;35.624;139.698;2023-12-28T03:55:11;102229.00;;;17.36;22.97
53659;BME280;41524;35.624;139.698;2023-12-28T04:00:12;102211.00;;;26.45;17.36
53659;BME280;41524;35.624;139.698;2023-12-28T04:05:11;102222.00;;;11.58;28.23
53659;BME280;41524;35.624;139.698;2023-12-28T04:10:11;102203.00;;;19.11;23.62
53659;BME280;41524;35.624;139.698;2023-12-28T04:15:11;102191.00;;;24.35;19.06
53659;BME280;41524;35.624;139.698;2023-12-28T04:20:11;102179.00;;;25.21;17.83
53659;BME280;41524;35.624;139.698;2023-12-28T04:25:14;102172.00;;;25.36;17.44
53659;BME280;41524;35.624;139.698;2023-12-28T04:30:14;102170.00;;;23.39;19.13
53659;BME280;41524;35.624;139.698;2023-12-28T04:35:11;102172.00;;;19.68;22.66
53659;BME280;41524;35.624;139.698;2023-12-28T04:40:11;102166.00;;;18.11;24.00
53659;BME280;41524;35.624;139.698;2023-12-28T04:45:11;102161.00;;;19.76;22.99
53659;BME280;41524;35.624;139.698;2023-12-28T04:50:11;102175.00;;;9.76;32.37
53659;BME280;41524;35.624;139.698;2023-12-28T04:55:11;102173.00;;;9.08;34.82
53659;BME280;41524;35.624;139.698;2023-12-28T05:00:11;102171.00;;;8.38;38.62
53659;BME280;41524;35.624;139.698;2023-12-28T05:05:13;102170.00;;;7.10;40.95
53659;BME280;41524;35.624;139.698;2023-12-28T05:10:11;102169.00;;;8.97;37.77
53659;BME280;41524;35.624;139.698;2023-12-28T05:15:11;102165.00;;;8.99;38.09
53659;BME280;41524;35.624;139.698;2023-12-28T05:20:11;102170.00;;;7.11;41.10
53659;BME280;41524;35.624;139.698;2023-12-28T05:25:11;102172.00;;;8.77;37.98
53659;BME280;41524;35.624;139.698;2023-12-28T05:30:13;102169.00;;;7.85;39.65
53659;BME280;41524;35.624;139.698;2023-12-28T05:35:11;102163.00;;;7.21;40.55
53659;BME280;41524;35.624;139.698;2023-12-28T05:40:11;102171.00;;;9.09;38.99
53659;BME280;41524;35.624;139.698;2023-12-28T05:45:12;102167.00;;;8.65;39.01
53659;BME280;41524;35.624;139.698;2023-12-28T05:50:11;102161.00;;;9.83;37.94
53659;BME280;41524;35.624;139.698;2023-12-28T05:55:11;102174.00;;;8.39;40.35
53659;BME280;41524;35.624;139.698;2023-12-28T06:00:12;102171.00;;;9.25;38.16
53659;BME280;41524;35.624;139.698;2023-12-28T06:05:11;102169.00;;;9.95;36.59
53659;BME280;41524;35.624;139.698;2023-12-28T06:10:10;102173.00;;;9.20;37.20
53659;BME280;41524;35.624;139.698;2023-12-28T06:15:11;102163.00;;;10.19;36.43
53659;BME280;41524;35.624;139.698;2023-12-28T06:20:12;102160.00;;;9.46;36.94
53659;BME280;41524;35.624;139.698;2023-12-28T06:25:13;102152.00;;;9.63;36.35
53659;BME280;41524;35.624;139.698;2023-12-28T06:30:12;102152.00;;;9.97;36.72
53659;BME280;41524;35.624;139.698;2023-12-28T06:35:10;102149.00;;;9.50;36.71
53659;BME280;41524;35.624;139.698;2023-12-28T06:40:12;102158.00;;;9.17;37.67
53659;BME280;41524;35.624;139.698;2023-12-28T06:45:12;102154.00;;;8.82;38.92
53659;BME280;41524;35.624;139.698;2023-12-28T06:50:11;102158.00;;;8.27;39.02
53659;BME280;41524;35.624;139.698;2023-12-28T06:55:10;102159.00;;;8.70;38.07
53659;BME280;41524;35.624;139.698;2023-12-28T07:00:12;102160.00;;;9.53;37.35
53659;BME280;41524;35.624;139.698;2023-12-28T07:05:11;102174.00;;;9.05;38.30
53659;BME280;41524;35.624;139.698;2023-12-28T07:10:11;102178.00;;;9.35;38.05
53659;BME280;41524;35.624;139.698;2023-12-28T07:15:12;102170.00;;;9.26;37.98
53659;BME280;41524;35.624;139.698;2023-12-28T07:20:12;102163.00;;;9.09;38.78
53659;BME280;41524;35.624;139.698;2023-12-28T07:25:11;102162.00;;;8.73;39.09
53659;BME280;41524;35.624;139.698;2023-12-28T07:30:12;102162.00;;;8.78;40.11
53659;BME280;41524;35.624;139.698;2023-12-28T07:35:12;102152.00;;;9.59;38.93
53659;BME280;41524;35.624;139.698;2023-12-28T07:40:13;102160.00;;;8.64;40.14
53659;BME280;41524;35.624;139.698;2023-12-28T07:45:11;102152.00;;;8.53;40.22
53659;BME280;41524;35.624;139.698;2023-12-28T07:50:10;102150.00;;;9.00;39.53
53659;BME280;41524;35.624;139.698;2023-12-28T07:55:11;102140.00;;;8.52;40.02
53659;BME280;41524;35.624;139.698;2023-12-28T08:00:12;102145.00;;;7.59;41.54
53659;BME280;41524;35.624;139.698;2023-12-28T08:05:12;102155.00;;;8.65;40.79
53659;BME280;41524;35.624;139.698;2023-12-28T08:10:11;102150.00;;;8.32;41.71
53659;BME280;41524;35.624;139.698;2023-12-28T08:15:12;102153.00;;;8.01;42.05
53659;BME280;41524;35.624;139.698;2023-12-28T08:20:10;102149.00;;;8.53;41.98
53659;BME280;41524;35.624;139.698;2023-12-28T08:25:10;102130.00;;;7.48;43.27
53659;BME280;41524;35.624;139.698;2023-12-28T08:30:11;102148.00;;;8.40;42.26
53659;BME280;41524;35.624;139.698;2023-12-28T08:35:10;102157.00;;;8.16;43.23
53659;BME280;41524;35.624;139.698;2023-12-28T08:40:11;102171.00;;;8.61;42.97
53659;BME280;41524;35.624;139.698;2023-12-28T08:45:11;102168.00;;;8.16;43.65
53659;BME280;41524;35.624;139.698;2023-12-28T08:50:11;102161.00;;;8.70;43.24
53659;BME280;41524;35.624;139.698;2023-12-28T08:55:10;102154.00;;;8.37;43.77
53659;BME280;41524;35.624;139.698;2023-12-28T09:00:11;102152.00;;;8.28;44.23
53659;BME280;41524;35.624;139.698;2023-12-28T09:05:11;102157.00;;;8.15;44.77
53659;BME280;41524;35.624;139.698;2023-12-28T09:10:11;102153.00;;;7.77;45.12
53659;BME280;41524;35.624;139.698;2023-12-28T09:15:11;102149.00;;;8.53;43.89
53659;BME280;41524;35.624;139.698;2023-12-28T09:20:12;102145.00;;;7.96;44.93
53659;BME280;41524;35.624;139.698;2023-12-28T09:25:11;102145.00;;;7.75;45.17
53659;BME280;41524;35.624;139.698;2023-12-28T09:30:11;102152.00;;;7.62;45.16
53659;BME280;41524;35.624;139.698;2023-12-28T09:35:11;102152.00;;;7.62;45.33
53659;BME280;41524;35.624;139.698;2023-12-28T09:40:11;102160.00;;;8.20;44.06
53659;BME280;41524;35.624;139.698;2023-12-28T09:45:11;102165.00;;;8.03;44.55
53659;BME280;41524;35.624;139.698;2023-12-28T09:50:11;102168.00;;;7.57;44.95
53659;BME280;41524;35.624;139.698;2023-12-28T09:55:11;102157.00;;;8.10;43.93
53659;BME280;41524;35.624;139.698;2023-12-28T10:00:12;102151.00;;;7.57;45.01
53659;BME280;41524;35.624;139.698;2023-12-28T10:05:13;102155.00;;;7.76;44.97
53659;BME280;41524;35.624;139.698;2023-12-28T10:10:12;102152.00;;;7.79;44.85
53659;BME280;41524;35.624;139.698;2023-12-28T10:15:13;102149.00;;;7.37;45.99
53659;BME280;41524;35.624;139.698;2023-12-28T10:20:11;102134.00;;;6.22;48.81
53659;BME280;41524;35.624;139.698;2023-12-28T10:25:11;102133.00;;;7.23;46.63
53659;BME280;41524;35.624;139.698;2023-12-28T10:30:12;102131.00;;;7.40;46.42
53659;BME280;41524;35.624;139.698;2023-12-28T10:35:11;102123.00;;;7.22;47.17
53659;BME280;41524;35.624;139.698;2023-12-28T10:40:13;102117.00;;;7.65;46.52
53659;BME280;41524;35.624;139.698;2023-12-28T10:45:12;102110.00;;;7.55;47.21
53659;BME280;41524;35.624;139.698;2023-12-28T10:50:12;102103.00;;;7.65;46.74
53659;BME280;41524;35.624;139.698;2023-12-28T10:55:37;102103.00;;;6.61;48.79
53659;BME280;41524;35.624;139.698;2023-12-28T11:00:13;102096.00;;;7.76;47.21
53659;BME280;41524;35.624;139.698;2023-12-28T11:05:12;102082.00;;;6.70;48.71
53659;BME280;41524;35.624;139.698;2023-12-28T11:10:12;102077.00;;;7.41;48.44
53659;BME280;41524;35.624;139.698;2023-12-28T11:15:11;102071.00;;;7.37;48.06
53659;BME280;41524;35.624;139.698;2023-12-28T11:20:11;102081.00;;;6.36;50.01
53659;BME280;41524;35.624;139.698;2023-12-28T11:25:16;102083.00;;;6.85;49.31
53659;BME280;41524;35.624;139.698;2023-12-28T11:30:12;102078.00;;;7.45;48.72
53659;BME280;41524;35.624;139.698;2023-12-28T11:35:13;102081.00;;;7.02;49.47
53659;BME280;41524;35.624;139.698;2023-12-28T11:40:16;102077.00;;;7.04;49.17
53659;BME280;41524;35.624;139.698;2023-12-28T11:45:13;102069.00;;;7.46;48.95
53659;BME280;41524;35.624;139.698;2023-12-28T11:50:12;102064.00;;;8.05;48.94
53659;BME280;41524;35.624;139.698;2023-12-28T11:55:11;102069.00;;;7.08;49.86
53659;BME280;41524;35.624;139.698;2023-12-28T12:00:11;102058.00;;;7.27;49.56
53659;BME280;41524;35.624;139.698;2023-12-28T12:05:10;102054.00;;;7.02;49.72
53659;BME280;41524;35.624;139.698;2023-12-28T12:10:15;102060.00;;;6.39;51.51
53659;BME280;41524;35.624;139.698;2023-12-28T12:15:11;102048.00;;;7.07;49.32
53659;BME280;41524;35.624;139.698;2023-12-28T12:20:11;102043.00;;;7.18;49.19
53659;BME280;41524;35.624;139.698;2023-12-28T12:25:11;102036.00;;;7.07;49.32
53659;BME280;41524;35.624;139.698;2023-12-28T12:30:13;102032.00;;;6.52;50.18
53659;BME280;41524;35.624;139.698;2023-12-28T12:35:11;102021.00;;;6.31;50.66
53659;BME280;41524;35.624;139.698;2023-12-28T12:40:11;102012.00;;;6.56;50.25
53659;BME280;41524;35.624;139.698;2023-12-28T12:45:15;102018.00;;;6.66;50.37
53659;BME280;41524;35.624;139.698;2023-12-28T12:50:11;102022.00;;;5.54;51.57
53659;BME280;41524;35.624;139.698;2023-12-28T12:55:12;102028.00;;;6.21;49.94
53659;BME280;41524;35.624;139.698;2023-12-28T13:00:16;102033.00;;;5.71;50.48
53659;BME280;41524;35.624;139.698;2023-12-28T13:05:11;102046.00;;;6.20;49.44
53659;BME280;41524;35.624;139.698;2023-12-28T13:10:10;102043.00;;;6.04;48.58
53659;BME280;41524;35.624;139.698;2023-12-28T13:15:11;102040.00;;;6.10;48.48
53659;BME280;41524;35.624;139.698;2023-12-28T13:20:12;102041.00;;;5.22;49.43
53659;BME280;41524;35.624;139.698;2023-12-28T13:25:11;102037.00;;;5.63;48.71
53659;BME280;41524;35.624;139.698;2023-12-28T13:30:11;102033.00;;;5.14;49.37
53659;BME280;41524;35.624;139.698;2023-12-28T13:35:10;102033.00;;;5.32;48.42
53659;BME280;41524;35.624;139.698;2023-12-28T13:40:12;102027.00;;;6.02;47.50
53659;BME280;41524;35.624;139.698;2023-12-28T13:45:11;102024.00;;;5.14;48.50
53659;BME280;41524;35.624;139.698;2023-12-28T13:50:11;102029.00;;;4.47;48.93
53659;BME280;41524;35.624;139.698;2023-12-28T13:55:12;102018.00;;;5.34;47.88
53659;BME280;41524;35.624;139.698;2023-12-28T14:00:12;102010.00;;;4.50;48.67
53659;BME280;41524;35.624;139.698;2023-12-28T14:05:12;102005.00;;;4.71;48.58
53659;BME280;41524;35.624;139.698;2023-12-28T14:10:11;101994.00;;;4.90;48.17
53659;BME280;41524;35.624;139.698;2023-12-28T14:15:11;101992.00;;;5.17;47.46
53659;BME280;41524;35.624;139.698;2023-12-28T14:20:11;101983.00;;;4.54;48.15
53659;BME280;41524;35.624;139.698;2023-12-28T14:25:12;101985.00;;;4.06;48.66
53659;BME280;41524;35.624;139.698;2023-12-28T14:30:11;101983.00;;;4.95;47.43
53659;BME280;41524;35.624;139.698;2023-12-28T14:35:13;101979.00;;;4.50;48.50
53659;BME280;41524;35.624;139.698;2023-12-28T14:40:12;101977.00;;;4.39;47.91
53659;BME280;41524;35.624;139.698;2023-12-28T14:45:11;101960.00;;;4.28;48.36
53659;BME280;41524;35.624;139.698;2023-12-28T14:50:10;101946.00;;;4.40;47.88
53659;BME280;41524;35.624;139.698;2023-12-28T14:55:11;101945.00;;;5.45;46.55
53659;BME280;41524;35.624;139.698;2023-12-28T15:00:12;101944.00;;;4.45;48.18
53659;BME280;41524;35.624;139.698;2023-12-28T15:05:10;101943.00;;;4.38;48.41
53659;BME280;41524;35.624;139.698;2023-12-28T15:10:12;101939.00;;;4.29;48.43
53659;BME280;41524;35.624;139.698;2023-12-28T15:15:12;101938.00;;;4.38;48.17
53659;BME280;41524;35.624;139.698;2023-12-28T15:20:13;101930.00;;;3.96;49.16
53659;BME280;41524;35.624;139.698;2023-12-28T15:25:11;101922.00;;;4.87;47.94
53659;BME280;41524;35.624;139.698;2023-12-28T15:30:11;101928.00;;;3.77;49.29
53659;BME280;41524;35.624;139.698;2023-12-28T15:35:13;101913.00;;;4.53;48.43
53659;BME280;41524;35.624;139.698;2023-12-28T15:40:11;101903.00;;;4.15;48.67
53659;BME280;41524;35.624;139.698;2023-12-28T15:45:11;101904.00;;;4.41;48.25
53659;BME280;41524;35.624;139.698;2023-12-28T15:50:10;101905.00;;;3.47;49.72
53659;BME280;41524;35.624;139.698;2023-12-28T15:55:11;101899.00;;;3.57;49.66
53659;BME280;41524;35.624;139.698;2023-12-28T16:00:12;101902.00;;;4.25;48.73
53659;BME280;41524;35.624;139.698;2023-12-28T16:05:10;101906.00;;;4.12;49.04
53659;BME280;41524;35.624;139.698;2023-12-28T16:10:11;101905.00;;;4.22;49.09
53659;BME280;41524;35.624;139.698;2023-12-28T16:15:12;101907.00;;;3.60;49.91
53659;BME280;41524;35.624;139.698;2023-12-28T16:20:12;101905.00;;;3.66;49.41
53659;BME280;41524;35.624;139.698;2023-12-28T16:25:12;101905.00;;;3.83;48.57
53659;BME280;41524;35.624;139.698;2023-12-28T16:30:12;101894.00;;;4.00;48.58
53659;BME280;41524;35.624;139.698;2023-12-28T16:35:11;101896.00;;;4.02;48.40
53659;BME280;41524;35.624;139.698;2023-12-28T16:40:12;101894.00;;;4.45;47.50
53659;BME280;41524;35.624;139.698;2023-12-28T16:45:11;101884.00;;;4.16;48.06
53659;BME280;41524;35.624;139.698;2023-12-28T16:50:10;101894.00;;;4.01;48.44
53659;BME280;41524;35.624;139.698;2023-12-28T16:55:10;101899.00;;;3.77;49.34
53659;BME280;41524;35.624;139.698;2023-12-28T17:00:14;101904.00;;;3.67;49.22
53659;BME280;41524;35.624;139.698;2023-12-28T17:05:12;101900.00;;;3.70;48.97
53659;BME280;41524;35.624;139.698;2023-12-28T17:10:12;101906.00;;;3.17;49.57
53659;BME280;41524;35.624;139.698;2023-12-28T17:15:13;101904.00;;;3.81;49.18
53659;BME280;41524;35.624;139.698;2023-12-28T17:20:12;101895.00;;;4.22;48.23
53659;BME280;41524;35.624;139.698;2023-12-28T17:25:21;101890.00;;;4.06;47.89
53659;BME280;41524;35.624;139.698;2023-12-28T17:30:14;101887.00;;;4.79;46.86
53659;BME280;41524;35.624;139.698;2023-12-28T17:35:12;101884.00;;;4.25;47.03
53659;BME280;41524;35.624;139.698;2023-12-28T17:40:12;101886.00;;;3.57;48.40
53659;BME280;41524;35.624;139.698;2023-12-28T17:45:14;101877.00;;;4.09;47.54
53659;BME280;41524;35.624;139.698;2023-12-28T17:50:12;101871.00;;;4.53;47.15
53659;BME280;41524;35.624;139.698;2023-12-28T17:55:11;101861.00;;;4.18;46.93
53659;BME280;41524;35.624;139.698;2023-12-28T18:00:11;101849.00;;;4.83;46.77
53659;BME280;41524;35.624;139.698;2023-12-28T18:05:11;101844.00;;;4.02;47.63
53659;BME280;41524;35.624;139.698;2023-12-28T18:10:10;101852.00;;;4.44;47.07
53659;BME280;41524;35.624;139.698;2023-12-28T18:15:11;101848.00;;;4.70;46.42
53659;BME280;41524;35.624;139.698;2023-12-28T18:20:11;101861.00;;;3.81;47.89
53659;BME280;41524;35.624;139.698;2023-12-28T18:25:12;101880.00;;;3.82;48.28
53659;BME280;41524;35.624;139.698;2023-12-28T18:30:12;101880.00;;;3.94;47.99
53659;BME280;41524;35.624;139.698;2023-12-28T18:35:11;101880.00;;;3.68;48.41
53659;BME280;41524;35.624;139.698;2023-12-28T18:40:11;101883.00;;;3.62;48.11
53659;BME280;41524;35.624;139.698;2023-12-28T18:45:11;101882.00;;;4.35;46.80
53659;BME280;41524;35.624;139.698;2023-12-28T18:50:11;101879.00;;;4.68;46.92
53659;BME280;41524;35.624;139.698;2023-12-28T18:55:10;101881.00;;;4.35;47.32
53659;BME280;41524;35.624;139.698;2023-12-28T19:00:12;101872.00;;;4.20;47.14
53659;BME280;41524;35.624;139.698;2023-12-28T19:05:10;101878.00;;;4.22;46.88
53659;BME280;41524;35.624;139.698;2023-12-28T19:10:11;101874.00;;;3.90;47.66
53659;BME280;41524;35.624;139.698;2023-12-28T19:15:29;101886.00;;;3.26;48.93
53659;BME280;41524;35.624;139.698;2023-12-28T19:20:11;101886.00;;;3.70;48.04
53659;BME280;41524;35.624;139.698;2023-12-28T19:25:11;101889.00;;;3.94;47.91
53659;BME280;41524;35.624;139.698;2023-12-28T19:30:12;101897.00;;;4.04;48.09
53659;BME280;41524;35.624;139.698;2023-12-28T19:35:12;101899.00;;;3.94;48.67
53659;BME280;41524;35.624;139.698;2023-12-28T19:40:12;101901.00;;;3.98;48.36
53659;BME280;41524;35.624;139.698;2023-12-28T19:45:11;101898.00;;;4.14;47.92
53659;BME280;41524;35.624;139.698;2023-12-28T19:50:11;101897.00;;;3.18;50.23
53659;BME280;41524;35.624;139.698;2023-12-28T19:55:11;101885.00;;;5.16;47.08
53659;BME280;41524;35.624;139.698;2023-12-28T20:00:12;101879.00;;;4.02;48.64
53659;BME280;41524;35.624;139.698;2023-12-28T20:05:10;101880.00;;;3.60;49.55
53659;BME280;41524;35.624;139.698;2023-12-28T20:10:11;101883.00;;;3.79;48.70
53659;BME280;41524;35.624;139.698;2023-12-28T20:15:11;101879.00;;;3.92;48.81
53659;BME280;41524;35.624;139.698;2023-12-28T20:20:12;101889.00;;;3.27;50.37
53659;BME280;41524;35.624;139.698;2023-12-28T20:25:11;101889.00;;;3.14;51.01
53659;BME280;41524;35.624;139.698;2023-12-28T20:30:12;101892.00;;;2.90;51.12
53659;BME280;41524;35.624;139.698;2023-12-28T20:35:11;101896.00;;;3.28;50.74
53659;BME280;41524;35.624;139.698;2023-12-28T20:40:12;101886.00;;;4.04;49.21
53659;BME280;41524;35.624;139.698;2023-12-28T20:45:10;101898.00;;;3.49;49.70
53659;BME280;41524;35.624;139.698;2023-12-28T20:50:11;101897.00;;;3.51;49.76
53659;BME280;41524;35.624;139.698;2023-12-28T20:55:11;101902.00;;;3.56;49.50
53659;BME280;41524;35.624;139.698;2023-12-28T21:00:11;101905.00;;;3.88;49.93
53659;BME280;41524;35.624;139.698;2023-12-28T21:05:10;101909.00;;;3.64;49.72
53659;BME280;41524;35.624;139.698;2023-12-28T21:10:11;101909.00;;;3.41;50.20
53659;BME280;41524;35.624;139.698;2023-12-28T21:15:10;101916.00;;;3.66;49.84
53659;BME280;41524;35.624;139.698;2023-12-28T21:20:12;101912.00;;;3.56;50.46
53659;BME280;41524;35.624;139.698;2023-12-28T21:25:11;101926.00;;;3.15;50.71
53659;BME280;41524;35.624;139.698;2023-12-28T21:30:11;101930.00;;;3.29;49.91
53659;BME280;41524;35.624;139.698;2023-12-28T21:35:11;101930.00;;;3.19;50.51
53659;BME280;41524;35.624;139.698;2023-12-28T21:40:12;101925.00;;;3.23;50.41
53659;BME280;41524;35.624;139.698;2023-12-28T21:45:12;101926.00;;;3.39;49.97
53659;BME280;41524;35.624;139.698;2023-12-28T21:50:11;101929.00;;;3.39;50.03
53659;BME280;41524;35.624;139.698;2023-12-28T21:55:11;101926.00;;;3.83;49.39
53659;BME280;41524;35.624;139.698;2023-12-28T22:00:11;101940.00;;;3.89;50.16
53659;BME280;41524;35.624;139.698;2023-12-28T22:05:11;101949.00;;;3.87;49.62
53659;BME280;41524;35.624;139.698;2023-12-28T22:10:12;101941.00;;;3.55;50.50
53659;BME280;41524;35.624;139.698;2023-12-28T22:15:12;101950.00;;;3.58;51.52
53659;BME280;41524;35.624;139.698;2023-12-28T22:20:11;101956.00;;;3.17;51.81
53659;BME280;41524;35.624;139.698;2023-12-28T22:25:12;101961.00;;;3.86;51.53
53659;BME280;41524;35.624;139.698;2023-12-28T22:30:11;101951.00;;;4.11;53.06
53659;BME280;41524;35.624;139.698;2023-12-28T22:35:10;101953.00;;;3.41;53.40
53659;BME280;41524;35.624;139.698;2023-12-28T22:40:12;101946.00;;;4.27;51.74
53659;BME280;41524;35.624;139.698;2023-12-28T22:45:12;101957.00;;;3.72;52.28
53659;BME280;41524;35.624;139.698;2023-12-28T22:50:11;101956.00;;;3.90;52.94
53659;BME280;41524;35.624;139.698;2023-12-28T22:55:12;101952.00;;;5.86;49.30
53659;BME280;41524;35.624;139.698;2023-12-28T23:00:11;101952.00;;;10.15;41.53
53659;BME280;41524;35.624;139.698;2023-12-28T23:05:11;101959.00;;;10.16;38.61
53659;BME280;41524;35.624;139.698;2023-12-28T23:10:11;101966.00;;;12.09;35.88
53659;BME280;41524;35.624;139.698;2023-12-28T23:15:12;101977.00;;;12.38;33.98
53659;BME280;41524;35.624;139.698;2023-12-28T23:20:11;101976.00;;;12.58;33.14
53659;BME280;41524;35.624;139.698;2023-12-28T23:25:13;101971.00;;;15.81;30.23
53659;BME280;41524;35.624;139.698;2023-12-28T23:30:12;101977.00;;;15.23;30.53
53659;BME280;41524;35.624;139.698;2023-12-28T23:35:11;101977.00;;;12.45;33.76
53659;BME280;41524;35.624;139.698;2023-12-28T23:40:11;101977.00;;;14.78;30.47
53659;BME280;41524;35.624;139.698;2023-12-28T23:45:11;101981.00;;;15.27;30.50
53659;BME280;41524;35.624;139.698;2023-12-28T23:50:11;101984.00;;;16.12;30.50
53659;BME280;41524;35.624;139.698;2023-12-28T23:55:11;101974.00;;;19.24;26.83
